Time;durP1;ratioP1;P1;durP2;ratioP2;P2;SDS_P1;SDS_P2;PMS_P1;PMS_P2;Temp;Humidity;BMP_temperature;BMP_pressure;BME280_temperature;BME280_humidity;BME280_pressure;Samples;Min_cycle;Max_cycle;Signal;HPM_P1;HPM_P2
2022/10/09 00:01:56;;;;;;;14.15;8.57;;;13.60;99.90;;;;;;5052369;28;20640;-89
2022/10/09 00:04:22;;;;;;;17.88;8.93;;;13.60;99.90;;;;;;5036103;28;20184;-88
2022/10/09 00:06:47;;;;;;;18.05;8.93;;;13.60;99.90;;;;;;5035860;28;20235;-88
2022/10/09 00:09:13;;;;;;;16.83;8.05;;;13.60;99.90;;;;;;5052731;28;20211;-88
2022/10/09 00:11:39;;;;;;;12.82;7.93;;;13.50;99.90;;;;;;5052429;28;20230;-88
2022/10/09 00:14:04;;;;;;;15.55;8.93;;;13.50;99.90;;;;;;5054005;28;20210;-88
2022/10/09 00:16:30;;;;;;;15.13;8.07;;;13.50;99.90;;;;;;5053750;28;20186;-88
2022/10/09 00:18:57;;;;;;;15.23;8.25;;;13.50;99.90;;;;;;5052629;28;20221;-88
2022/10/09 00:21:28;;;;;;;15.02;7.95;;;13.50;99.90;;;;;;5052486;28;20222;-88
2022/10/09 00:23:56;;;;;;;14.48;8.20;;;13.40;99.90;;;;;;5051485;28;20211;-88
2022/10/09 00:26:23;;;;;;;14.07;7.80;;;13.50;99.90;;;;;;5053440;28;20283;-88
2022/10/09 00:28:49;;;;;;;15.70;8.75;;;13.50;99.90;;;;;;5036201;28;20179;-88
2022/10/09 00:31:15;;;;;;;14.68;8.20;;;13.40;99.90;;;;;;5053753;28;20222;-88
2022/10/09 00:33:41;;;;;;;12.98;8.90;;;13.40;99.90;;;;;;5052509;28;20180;-88
2022/10/09 00:36:10;;;;;;;15.85;7.80;;;13.30;99.90;;;;;;5035489;28;20188;-87
2022/10/09 00:38:36;;;;;;;12.93;6.78;;;13.30;99.90;;;;;;5052197;28;20187;-87
2022/10/09 00:41:02;;;;;;;14.23;6.95;;;13.30;99.90;;;;;;5053128;28;20176;-88
2022/10/09 00:43:41;;;;;;;12.73;7.00;;;13.30;99.90;;;;;;5053577;28;20180;-87
2022/10/09 00:46:19;;;;;;;11.63;7.25;;;13.20;99.90;;;;;;5052749;28;20284;-88
2022/10/09 00:48:50;;;;;;;13.80;7.40;;;13.20;99.90;;;;;;5052261;28;20274;-87
2022/10/09 00:51:16;;;;;;;10.60;5.97;;;13.10;99.90;;;;;;5053529;28;20184;-88
2022/10/09 00:53:41;;;;;;;11.75;6.45;;;13.20;99.90;;;;;;5052082;28;20504;-88
2022/10/09 00:56:07;;;;;;;15.32;7.00;;;13.10;99.90;;;;;;5051929;28;20668;-87
2022/10/09 00:58:33;;;;;;;15.63;6.85;;;13.10;99.90;;;;;;5035984;28;20176;-87
2022/10/09 01:00:59;;;;;;;8.93;6.15;;;13.10;99.90;;;;;;5054011;28;20179;-87
2022/10/09 01:03:24;;;;;;;12.15;6.53;;;13.10;99.90;;;;;;5035577;28;20651;-87
2022/10/09 01:06:30;;;;;;;10.05;6.03;;;13.00;99.90;;;;;;5052413;28;20697;-87
2022/10/09 01:09:17;;;;;;;10.65;6.22;;;13.00;99.90;;;;;;5052240;28;20179;-87
2022/10/09 01:11:52;;;;;;;11.68;6.25;;;12.90;99.90;;;;;;5053382;28;20156;-88
2022/10/09 01:14:24;;;;;;;9.90;5.55;;;12.90;99.90;;;;;;5052066;28;20179;-88
2022/10/09 01:17:20;;;;;;;9.88;5.70;;;12.90;99.90;;;;;;5053712;28;20179;-87
2022/10/09 01:20:21;;;;;;;10.68;5.43;;;12.90;99.90;;;;;;5053773;28;20180;-87
2022/10/09 01:23:28;;;;;;;7.10;5.20;;;12.80;99.90;;;;;;5052296;28;20196;-87
2022/10/09 01:26:15;;;;;;;6.07;3.75;;;12.70;99.90;;;;;;5054594;28;20168;-87
2022/10/09 01:28:45;;;;;;;8.05;5.28;;;12.70;99.90;;;;;;5055016;28;20214;-87
2022/10/09 01:31:13;;;;;;;9.32;6.07;;;12.60;99.90;;;;;;5057247;28;20255;-87
2022/10/09 01:33:39;;;;;;;11.07;5.45;;;12.60;99.90;;;;;;5057311;28;20659;-86
2022/10/09 01:36:07;;;;;;;10.25;5.63;;;12.60;99.90;;;;;;5056710;28;20184;-86
2022/10/09 01:38:33;;;;;;;12.52;5.15;;;12.60;99.90;;;;;;5056008;28;20240;-87
2022/10/09 01:41:01;;;;;;;10.10;5.43;;;12.60;99.90;;;;;;5057455;28;20176;-88
2022/10/09 01:43:27;;;;;;;7.43;4.78;;;12.60;99.90;;;;;;5061392;28;20176;-87
2022/10/09 01:46:31;;;;;;;7.18;4.07;;;12.50;99.90;;;;;;5064518;28;20250;-88
2022/10/09 01:49:24;;;;;;;5.75;3.70;;;12.50;99.90;;;;;;5067068;28;20186;-87
2022/10/09 01:52:04;;;;;;;8.48;4.60;;;12.50;99.90;;;;;;5061079;28;20187;-87
2022/10/09 01:54:50;;;;;;;8.02;4.40;;;12.50;99.90;;;;;;5055176;28;20184;-87
2022/10/09 01:57:23;;;;;;;6.00;3.50;;;12.40;99.90;;;;;;5056139;28;20678;-87
2022/10/09 01:59:51;;;;;;;6.13;4.13;;;12.40;99.90;;;;;;5056271;28;20652;-87
2022/10/09 02:02:18;;;;;;;6.57;3.83;;;12.40;99.90;;;;;;5055293;28;20176;-87
2022/10/09 02:04:45;;;;;;;6.05;3.60;;;12.30;99.90;;;;;;5055419;28;20651;-87
2022/10/09 02:07:11;;;;;;;4.80;3.35;;;12.40;99.90;;;;;;5056213;28;20628;-92
2022/10/09 02:09:38;;;;;;;9.18;4.57;;;12.30;99.90;;;;;;5038405;28;20188;-87
2022/10/09 02:12:08;;;;;;;6.45;3.42;;;12.30;99.90;;;;;;5054865;28;20172;-88
2022/10/09 02:14:34;;;;;;;9.05;3.60;;;12.30;99.90;;;;;;5056297;28;20172;-88
2022/10/09 02:17:17;;;;;;;5.63;3.50;;;12.20;99.90;;;;;;5054845;28;20209;-87
2022/10/09 02:19:48;;;;;;;4.15;2.83;;;12.20;99.90;;;;;;5056348;28;20161;-87
2022/10/09 02:22:18;;;;;;;8.07;4.38;;;12.20;99.90;;;;;;5054492;28;20206;-86
2022/10/09 02:24:45;;;;;;;5.32;3.30;;;12.10;99.90;;;;;;5054623;28;20225;-87
2022/10/09 02:27:12;;;;;;;8.82;3.20;;;12.10;99.90;;;;;;5054630;28;20200;-87
2022/10/09 02:29:42;;;;;;;4.13;3.05;;;12.10;99.90;;;;;;5038287;28;20227;-87
2022/10/09 02:32:09;;;;;;;4.95;2.92;;;12.00;99.90;;;;;;5054760;28;20182;-86
2022/10/09 02:34:35;;;;;;;14.00;3.83;;;12.00;99.90;;;;;;5054579;28;20187;-87
2022/10/09 02:37:02;;;;;;;8.52;4.10;;;12.00;99.90;;;;;;5038206;28;20697;-87
2022/10/09 02:39:27;;;;;;;12.50;3.38;;;11.90;99.90;;;;;;5055716;28;20178;-88
2022/10/09 02:41:53;;;;;;;5.35;3.45;;;11.90;99.90;;;;;;5054416;28;20176;-88
2022/10/09 02:44:19;;;;;;;4.95;2.78;;;11.80;99.90;;;;;;5054089;28;20184;-87
2022/10/09 02:46:44;;;;;;;6.47;3.67;;;11.80;99.90;;;;;;5054585;28;20203;-87
2022/10/09 02:49:10;;;;;;;9.27;4.45;;;11.70;99.90;;;;;;5054307;28;20187;-87
2022/10/09 02:51:36;;;;;;;4.72;3.45;;;11.70;99.90;;;;;;5054075;28;20187;-87
2022/10/09 02:54:02;;;;;;;10.10;3.45;;;11.70;99.90;;;;;;5054218;28;20183;-87
2022/10/09 02:56:28;;;;;;;6.85;3.13;;;11.70;99.90;;;;;;5053956;28;20640;-87
2022/10/09 02:58:53;;;;;;;6.90;3.40;;;11.60;99.90;;;;;;5054778;28;20180;-87
2022/10/09 03:01:19;;;;;;;5.40;2.50;;;11.60;99.90;;;;;;5055480;28;20187;-88
2022/10/09 03:03:45;;;;;;;6.85;3.38;;;11.60;99.90;;;;;;5054413;28;20176;-87
2022/10/09 03:06:12;;;;;;;3.90;2.60;;;11.60;99.90;;;;;;5055241;28;20200;-87
2022/10/09 03:08:40;;;;;;;4.90;2.83;;;11.60;99.90;;;;;;5053883;28;20180;-87
2022/10/09 03:11:06;;;;;;;5.90;2.83;;;11.50;99.90;;;;;;5054183;28;20183;-88
2022/10/09 03:13:32;;;;;;;3.55;2.30;;;11.50;99.90;;;;;;5053636;28;20186;-87
2022/10/09 03:16:03;;;;;;;4.07;2.80;;;11.50;99.90;;;;;;5055603;28;20175;-87
2022/10/09 03:18:29;;;;;;;3.17;2.38;;;11.50;99.90;;;;;;5053720;28;20267;-87
2022/10/09 03:20:55;;;;;;;3.30;1.83;;;11.40;99.90;;;;;;5053915;28;20605;-86
2022/10/09 03:23:20;;;;;;;4.97;1.80;;;11.40;99.90;;;;;;5054293;28;20207;-87
2022/10/09 03:25:57;;;;;;;2.67;2.17;;;11.30;99.90;;;;;;5053715;28;20215;-86
2022/10/09 03:28:23;;;;;;;2.78;2.15;;;11.30;99.90;;;;;;5053602;28;20201;-87
2022/10/09 03:30:49;;;;;;;4.80;2.75;;;11.30;99.90;;;;;;5055634;28;20171;-87
2022/10/09 03:33:15;;;;;;;5.95;2.53;;;11.30;99.90;;;;;;5054680;28;20274;-87
2022/10/09 03:35:41;;;;;;;3.72;2.35;;;11.20;99.90;;;;;;5036854;28;20198;-86
2022/10/09 03:38:07;;;;;;;3.88;2.75;;;11.20;99.90;;;;;;5038142;28;20283;-87
2022/10/09 03:40:32;;;;;;;3.95;2.92;;;11.20;99.90;;;;;;5056878;28;20176;-87
2022/10/09 03:42:58;;;;;;;3.78;2.97;;;11.10;99.90;;;;;;5057028;28;20263;-88
2022/10/09 03:45:24;;;;;;;3.22;2.78;;;11.10;99.90;;;;;;5039278;28;20235;-88
2022/10/09 03:47:50;;;;;;;3.58;2.67;;;11.10;99.90;;;;;;5067585;28;20274;-88
2022/10/09 03:50:15;;;;;;;2.90;2.55;;;11.10;99.90;;;;;;5081296;28;20180;-86
2022/10/09 03:52:41;;;;;;;6.68;2.58;;;11.10;99.90;;;;;;5097863;28;20231;-88
2022/10/09 03:55:07;;;;;;;2.75;2.38;;;11.10;99.90;;;;;;5098451;28;20230;-87
2022/10/09 03:57:34;;;;;;;3.83;2.67;;;11.10;99.90;;;;;;5056270;28;20187;-87
2022/10/09 03:59:59;;;;;;;4.72;3.00;;;11.10;99.90;;;;;;5059051;28;20179;-87
2022/10/09 04:02:25;;;;;;;5.28;3.03;;;11.10;99.90;;;;;;5048269;28;20163;-92
2022/10/09 04:04:51;;;;;;;3.88;2.10;;;11.10;99.90;;;;;;5097664;28;20175;-88
2022/10/09 04:07:17;;;;;;;5.28;2.78;;;11.10;99.90;;;;;;5080271;28;20203;-87
2022/10/09 04:09:42;;;;;;;5.72;2.78;;;11.10;99.90;;;;;;5097243;28;20163;-87
2022/10/09 04:12:08;;;;;;;5.03;3.08;;;11.10;99.90;;;;;;5049123;28;20678;-87
2022/10/09 04:14:34;;;;;;;7.28;2.75;;;11.10;99.90;;;;;;5054281;28;20635;-86
2022/10/09 04:16:59;;;;;;;3.97;3.13;;;11.10;99.90;;;;;;5033116;28;20659;-86
2022/10/09 04:19:25;;;;;;;7.38;2.10;;;11.10;99.90;;;;;;5055773;28;20623;-86
2022/10/09 04:21:50;;;;;;;5.63;3.13;;;11.10;99.90;;;;;;5040964;28;20182;-86
2022/10/09 04:24:16;;;;;;;3.38;2.28;;;11.10;99.90;;;;;;5041040;28;20191;-86
2022/10/09 04:26:42;;;;;;;6.68;2.83;;;11.10;99.90;;;;;;5039852;28;20203;-86
2022/10/09 04:29:07;;;;;;;4.20;2.63;;;11.10;99.90;;;;;;5074404;28;20211;-86
2022/10/09 04:31:33;;;;;;;4.75;2.42;;;11.00;99.90;;;;;;5055804;28;20183;-86
2022/10/09 04:33:59;;;;;;;6.07;2.28;;;11.00;99.90;;;;;;5055586;28;20186;-86
2022/10/09 04:36:24;;;;;;;9.15;2.53;;;10.90;99.90;;;;;;5073404;28;20183;-86
2022/10/09 04:38:51;;;;;;;4.65;2.67;;;10.80;99.90;;;;;;5055351;28;20217;-87
2022/10/09 04:41:17;;;;;;;4.00;2.60;;;10.80;99.90;;;;;;5051345;28;20274;-87
2022/10/09 04:43:44;;;;;;;4.15;2.85;;;10.70;99.90;;;;;;5031562;28;20268;-86
2022/10/09 04:46:11;;;;;;;7.22;2.45;;;10.70;99.90;;;;;;5048674;28;20714;-86
2022/10/09 04:48:38;;;;;;;5.85;2.92;;;10.60;99.90;;;;;;5071034;28;20213;-87
2022/10/09 04:51:05;;;;;;;3.60;2.35;;;10.50;99.90;;;;;;5072608;28;20180;-87
2022/10/09 04:53:32;;;;;;;5.13;3.22;;;10.50;99.90;;;;;;5055581;28;20262;-87
2022/10/09 04:56:00;;;;;;;4.35;2.95;;;10.50;99.90;;;;;;5055288;28;20179;-86
2022/10/09 04:58:26;;;;;;;2.35;2.15;;;10.50;99.90;;;;;;5053900;28;20222;-87
2022/10/09 05:00:52;;;;;;;9.00;3.08;;;10.40;99.90;;;;;;5035237;28;20539;-89
2022/10/09 05:03:17;;;;;;;6.82;3.38;;;10.40;99.90;;;;;;5038617;28;20222;-87
2022/10/09 05:05:43;;;;;;;6.13;3.47;;;10.30;99.90;;;;;;5045495;28;20187;-86
2022/10/09 05:08:09;;;;;;;6.72;3.83;;;10.30;99.90;;;;;;5055056;28;20313;-86
2022/10/09 05:10:34;;;;;;;7.68;4.00;;;10.30;99.90;;;;;;5052800;28;20207;-87
2022/10/09 05:13:00;;;;;;;6.93;3.88;;;10.20;99.90;;;;;;5039282;28;20561;-87
2022/10/09 05:15:26;;;;;;;11.33;4.93;;;10.20;99.90;;;;;;5074005;28;20211;-86
2022/10/09 05:17:51;;;;;;;8.73;4.07;;;10.20;99.90;;;;;;5057701;28;20195;-86
2022/10/09 05:20:17;;;;;;;11.60;4.55;;;10.30;99.90;;;;;;5074025;28;20329;-87
2022/10/09 05:22:44;;;;;;;7.57;4.53;;;10.30;99.90;;;;;;5059320;28;20198;-87
2022/10/09 05:25:09;;;;;;;7.60;4.13;;;10.30;99.90;;;;;;5075302;28;20203;-87
2022/10/09 05:27:35;;;;;;;7.90;4.30;;;10.30;99.90;;;;;;5042082;28;20241;-89
2022/10/09 05:30:01;;;;;;;16.83;6.23;;;10.40;99.90;;;;;;5042221;28;20623;-85
2022/10/09 05:32:26;;;;;;;15.95;6.70;;;10.40;99.90;;;;;;5042567;28;20191;-85
2022/10/09 05:34:52;;;;;;;13.33;5.27;;;10.40;99.90;;;;;;5070470;28;20738;-85
2022/10/09 05:37:18;;;;;;;14.73;6.70;;;10.40;99.90;;;;;;5046637;28;20292;-84
2022/10/09 05:39:44;;;;;;;13.45;6.18;;;10.40;99.90;;;;;;5068309;28;20195;-84
2022/10/09 05:42:09;;;;;;;10.15;5.28;;;10.50;99.90;;;;;;5059685;28;20229;-85
2022/10/09 05:44:35;;;;;;;8.38;4.00;;;10.50;99.90;;;;;;5076384;28;20281;-87
2022/10/09 05:47:01;;;;;;;9.27;5.03;;;10.50;99.90;;;;;;5041575;28;20210;-87
2022/10/09 05:49:26;;;;;;;15.83;5.37;;;10.50;99.90;;;;;;5058777;28;20191;-86
2022/10/09 05:51:53;;;;;;;9.20;4.95;;;10.50;99.90;;;;;;5076591;28;20187;-86
2022/10/09 05:54:19;;;;;;;9.77;4.07;;;10.50;99.90;;;;;;5050962;28;20194;-87
2022/10/09 05:56:45;;;;;;;8.13;4.65;;;10.50;99.90;;;;;;5028614;28;20196;-86
2022/10/09 05:59:14;;;;;;;7.70;4.53;;;10.50;99.90;;;;;;5038628;28;20274;-86
2022/10/09 06:01:45;;;;;;;7.60;3.90;;;10.50;99.90;;;;;;5029082;28;20731;-89
2022/10/09 06:04:16;;;;;;;7.00;3.10;;;10.50;99.90;;;;;;5071958;28;20179;-85
2022/10/09 06:06:43;;;;;;;10.37;4.57;;;10.50;99.90;;;;;;5055699;28;20211;-86
2022/10/09 06:09:10;;;;;;;6.78;3.80;;;10.60;99.90;;;;;;5041643;28;20650;-87
2022/10/09 06:11:37;;;;;;;8.53;4.63;;;10.60;99.90;;;;;;5056945;28;20283;-86
2022/10/09 06:14:05;;;;;;;8.63;4.70;;;10.70;99.90;;;;;;5039771;28;20183;-86
2022/10/09 06:16:35;;;;;;;9.50;4.45;;;10.70;99.90;;;;;;5053260;28;20651;-86
2022/10/09 06:19:02;;;;;;;9.98;4.53;;;10.70;99.90;;;;;;5056993;28;20635;-88
2022/10/09 06:21:28;;;;;;;12.30;6.40;;;10.70;99.90;;;;;;5039688;28;20587;-87
2022/10/09 06:23:59;;;;;;;8.85;5.93;;;10.70;99.90;;;;;;5030176;28;20187;-87
2022/10/09 06:26:29;;;;;;;9.95;5.30;;;10.70;99.90;;;;;;5070432;28;20256;-85
2022/10/09 06:28:56;;;;;;;10.85;5.50;;;10.80;99.90;;;;;;5057519;28;20580;-86
2022/10/09 06:31:25;;;;;;;11.68;5.57;;;10.80;99.90;;;;;;5055009;28;20195;-87
2022/10/09 06:33:51;;;;;;;9.18;6.43;;;10.90;99.90;;;;;;5042493;28;20175;-88
2022/10/09 06:36:24;;;;;;;10.75;6.35;;;10.90;99.90;;;;;;5036107;28;20198;-86
2022/10/09 06:38:50;;;;;;;17.90;6.87;;;10.90;99.90;;;;;;5057449;28;20262;-88
2022/10/09 06:41:21;;;;;;;14.65;7.05;;;10.90;99.90;;;;;;5040173;28;20187;-87
2022/10/09 06:43:56;;;;;;;13.85;6.80;;;10.90;99.90;;;;;;5056924;28;20187;-87
2022/10/09 06:46:24;;;;;;;14.60;7.13;;;10.90;99.90;;;;;;5058296;28;20236;-85
2022/10/09 06:48:50;;;;;;;11.57;5.17;;;10.90;99.90;;;;;;5076110;28;20175;-85
2022/10/09 06:51:18;;;;;;;9.95;5.25;;;10.90;99.90;;;;;;5041112;28;20693;-86
2022/10/09 06:53:46;;;;;;;8.63;5.68;;;11.00;99.90;;;;;;5057155;28;20179;-87
2022/10/09 06:56:12;;;;;;;9.40;4.75;;;11.00;99.90;;;;;;5075190;28;20174;-85
2022/10/09 06:58:39;;;;;;;9.70;4.47;;;10.90;99.90;;;;;;5040660;28;20195;-87
2022/10/09 07:01:16;;;;;;;5.90;3.00;;;11.00;99.90;;;;;;5057134;28;20182;-87
2022/10/09 07:03:45;;;;;;;3.97;2.70;;;11.00;99.90;;;;;;5075256;28;20193;-86
2022/10/09 07:06:22;;;;;;;4.60;3.47;;;10.90;99.90;;;;;;5074825;28;20202;-87
2022/10/09 07:08:59;;;;;;;5.80;2.47;;;10.90;99.90;;;;;;5074793;28;20170;-87
2022/10/09 07:11:36;;;;;;;6.55;3.83;;;11.00;99.90;;;;;;5056155;28;20194;-87
2022/10/09 07:14:04;;;;;;;4.72;2.40;;;11.00;99.90;;;;;;5056770;28;20187;-87
2022/10/09 07:16:33;;;;;;;3.45;2.08;;;11.00;99.90;;;;;;5055107;28;20186;-87
2022/10/09 07:19:00;;;;;;;3.83;2.63;;;11.00;99.90;;;;;;5056419;28;20232;-87
2022/10/09 07:21:26;;;;;;;5.15;2.25;;;11.00;99.90;;;;;;5074183;28;20206;-88
2022/10/09 07:23:53;;;;;;;5.15;1.83;;;11.00;99.90;;;;;;5062090;28;20580;-88
2022/10/09 07:26:23;;;;;;;3.58;2.03;;;11.00;99.90;;;;;;5057335;28;20214;-87
2022/10/09 07:28:50;;;;;;;4.43;2.30;;;10.90;99.90;;;;;;5074685;28;20163;-87
2022/10/09 07:31:16;;;;;;;3.08;2.25;;;10.90;99.90;;;;;;5056350;28;20187;-87
2022/10/09 07:33:42;;;;;;;2.53;2.33;;;10.90;99.90;;;;;;5056176;28;20301;-88
2022/10/09 07:36:10;;;;;;;3.53;1.90;;;10.90;99.90;;;;;;5074184;28;20179;-87
2022/10/09 07:38:36;;;;;;;5.28;2.95;;;10.90;99.90;;;;;;5057101;28;20555;-86
2022/10/09 07:41:07;;;;;;;7.00;3.30;;;10.80;99.90;;;;;;5040240;28;20187;-88
2022/10/09 07:43:37;;;;;;;9.70;3.42;;;10.80;99.90;;;;;;5057493;28;20643;-87
2022/10/09 07:46:04;;;;;;;5.93;3.37;;;10.80;99.90;;;;;;5057047;28;20231;-87
2022/10/09 07:48:48;;;;;;;6.18;3.58;;;10.80;99.90;;;;;;5061115;28;20272;-90
2022/10/09 07:51:23;;;;;;;9.25;3.40;;;10.70;99.90;;;;;;5041610;28;20240;-88
2022/10/09 07:53:49;;;;;;;4.35;2.92;;;11.20;99.90;;;;;;5057055;28;20666;-88
2022/10/09 07:56:21;;;;;;;7.53;4.13;;;10.70;99.90;;;;;;5057107;28;20183;-87
2022/10/09 07:58:55;;;;;;;5.15;3.42;;;10.70;99.90;;;;;;5056700;28;20183;-89
2022/10/09 08:01:21;;;;;;;10.25;4.38;;;10.80;99.90;;;;;;5056431;28;20182;-89
2022/10/09 08:03:48;;;;;;;6.32;3.50;;;10.90;99.90;;;;;;5056379;28;20190;-87
2022/10/09 08:06:15;;;;;;;6.95;4.40;;;11.00;99.90;;;;;;5074376;28;20210;-90
2022/10/09 08:08:41;;;;;;;5.85;3.75;;;11.00;99.90;;;;;;5056381;28;20252;-87
2022/10/09 08:11:12;;;;;;;6.97;3.97;;;11.10;99.90;;;;;;5057057;28;20187;-87
2022/10/09 08:13:38;;;;;;;7.25;4.47;;;11.10;99.90;;;;;;5074078;28;20253;-89
2022/10/09 08:16:04;;;;;;;8.40;3.65;;;11.20;99.90;;;;;;5023655;28;20277;-85
2022/10/09 08:18:29;;;;;;;7.38;3.22;;;11.20;99.90;;;;;;5040788;28;20273;-86
2022/10/09 08:21:08;;;;;;;7.65;3.17;;;11.30;99.90;;;;;;5074873;28;20647;-86
2022/10/09 08:23:35;;;;;;;6.47;3.33;;;11.40;99.90;;;;;;5075301;28;20670;-87
2022/10/09 08:26:00;;;;;;;4.45;3.67;;;11.40;99.90;;;;;;5058608;28;20179;-86
2022/10/09 08:28:26;;;;;;;26.33;8.57;;;11.30;99.90;;;;;;5057636;28;20548;-86
2022/10/09 08:30:52;;;;;;;6.95;3.28;;;11.30;99.90;;;;;;5078475;28;20263;-87
2022/10/09 08:33:20;;;;;;;8.50;2.83;;;11.20;99.90;;;;;;5079978;28;20593;-86
2022/10/09 08:35:50;;;;;;;2.78;2.33;;;11.20;99.90;;;;;;5081636;28;20651;-86
2022/10/09 08:38:16;;;;;;;3.50;2.45;;;11.20;99.90;;;;;;5080236;28;20226;-88
2022/10/09 08:40:52;;;;;;;6.23;2.77;;;11.10;99.90;;;;;;5057347;28;20180;-87
2022/10/09 08:43:29;;;;;;;8.30;3.50;;;11.20;99.90;;;;;;5077301;28;20175;-87
2022/10/09 08:45:56;;;;;;;7.32;3.05;;;11.30;99.90;;;;;;5064191;28;20242;-85
2022/10/09 08:48:24;;;;;;;4.88;2.88;;;11.30;99.90;;;;;;5066952;28;20206;-89
2022/10/09 08:50:52;;;;;;;5.43;3.35;;;11.30;99.90;;;;;;5085512;28;20175;-86
2022/10/09 08:53:43;;;;;;;3.78;2.60;;;11.20;99.90;;;;;;5084415;28;20265;-86
2022/10/09 08:56:12;;;;;;;3.40;2.43;;;11.30;99.90;;;;;;5058066;28;20262;-87
2022/10/09 08:58:40;;;;;;;4.57;2.83;;;11.30;99.90;;;;;;5074549;28;20179;-88
2022/10/09 09:01:21;;;;;;;4.95;3.10;;;11.30;99.90;;;;;;5074095;28;20171;-87
2022/10/09 09:03:56;;;;;;;5.28;2.75;;;11.30;99.90;;;;;;5073881;28;20270;-87
2022/10/09 09:06:48;;;;;;;7.28;3.33;;;11.40;99.90;;;;;;5078397;28;20206;-88
2022/10/09 09:09:15;;;;;;;3.55;2.35;;;11.40;99.90;;;;;;5078823;28;20646;-86
2022/10/09 09:11:55;;;;;;;5.32;2.67;;;11.40;99.90;;;;;;5075940;28;20179;-86
2022/10/09 09:14:35;;;;;;;2.60;2.38;;;11.30;99.90;;;;;;5055389;28;20213;-89
2022/10/09 09:17:01;;;;;;;3.10;2.25;;;11.30;99.90;;;;;;5055317;28;20190;-87
2022/10/09 09:19:49;;;;;;;5.43;2.97;;;11.30;99.90;;;;;;5055383;28;20197;-92
2022/10/09 09:22:15;;;;;;;4.28;1.95;;;11.20;99.90;;;;;;5072741;28;20175;-88
2022/10/09 09:24:46;;;;;;;5.17;2.07;;;11.30;99.90;;;;;;5073055;28;20179;-87
2022/10/09 09:27:22;;;;;;;3.15;2.00;;;11.30;99.90;;;;;;5072924;28;20199;-87
2022/10/09 09:29:54;;;;;;;3.78;2.28;;;11.30;99.90;;;;;;5054983;28;20277;-88
2022/10/09 09:32:22;;;;;;;4.47;2.05;;;11.30;99.90;;;;;;5072784;28;20218;-88
2022/10/09 09:34:49;;;;;;;3.53;2.30;;;11.30;99.90;;;;;;5073157;28;20644;-87
2022/10/09 09:37:15;;;;;;;4.15;2.55;;;11.30;99.90;;;;;;5055028;28;20277;-86
2022/10/09 09:39:41;;;;;;;3.35;2.05;;;11.30;99.90;;;;;;5073289;28;20263;-87
2022/10/09 09:42:14;;;;;;;4.03;2.70;;;11.30;99.90;;;;;;5054529;28;20182;-89
2022/10/09 09:45:02;;;;;;;4.05;2.40;;;11.30;99.90;;;;;;5054728;28;20287;-87
2022/10/09 09:48:08;;;;;;;9.05;2.45;;;11.30;99.90;;;;;;5055020;28;20242;-87
2022/10/09 09:50:38;;;;;;;12.02;6.07;;;11.30;99.90;;;;;;4955773;28;20187;-87
2022/10/09 09:53:18;;;;;;;5.82;3.72;;;11.40;99.90;;;;;;5058141;28;20191;-87
2022/10/09 09:55:43;;;;;;;5.28;3.05;;;11.40;99.90;;;;;;5054926;28;20179;-89
2022/10/09 09:58:16;;;;;;;4.30;2.53;;;11.40;99.90;;;;;;5089382;28;20694;-90
2022/10/09 10:00:54;;;;;;;8.15;2.83;;;11.40;99.90;;;;;;5058598;28;20185;-87
2022/10/09 10:03:20;;;;;;;3.97;2.50;;;11.40;99.90;;;;;;5057772;28;20194;-86
2022/10/09 10:05:46;;;;;;;4.57;2.53;;;11.40;99.90;;;;;;5041405;28;20195;-87
2022/10/09 10:08:13;;;;;;;4.50;2.03;;;11.50;99.90;;;;;;5040889;28;20214;-87
2022/10/09 10:10:45;;;;;;;5.63;3.13;;;11.60;99.90;;;;;;5076319;28;20713;-87
2022/10/09 10:13:17;;;;;;;4.72;2.40;;;11.70;99.90;;;;;;5057854;28;20329;-89
2022/10/09 10:15:52;;;;;;;3.95;2.22;;;11.70;99.90;;;;;;5058322;28;20175;-87
2022/10/09 10:18:19;;;;;;;3.83;2.83;;;11.80;99.90;;;;;;5075921;28;20183;-88
2022/10/09 10:20:55;;;;;;;2.72;1.70;;;11.90;99.90;;;;;;5058184;28;20244;-85
2022/10/09 10:23:35;;;;;;;2.70;2.28;;;12.00;99.90;;;;;;5075941;28;20176;-87
2022/10/09 10:26:13;;;;;;;2.65;1.98;;;12.10;99.90;;;;;;5058245;28;20213;-88
2022/10/09 10:29:03;;;;;;;6.07;3.10;;;12.20;99.90;;;;;;5057940;28;20273;-88
2022/10/09 10:31:40;;;;;;;3.88;1.80;;;12.30;99.90;;;;;;5057945;28;20182;-89
2022/10/09 10:34:15;;;;;;;2.85;2.15;;;12.40;99.90;;;;;;5076134;28;20199;-89
2022/10/09 10:36:41;;;;;;;2.53;1.80;;;12.30;99.90;;;;;;5058129;28;20274;-89
2022/10/09 10:39:20;;;;;;;2.92;1.85;;;12.20;99.90;;;;;;5058048;28;20320;-89
2022/10/09 10:41:49;;;;;;;2.75;1.83;;;12.20;99.90;;;;;;5058453;28;20182;-89
2022/10/09 10:44:25;;;;;;;3.70;1.95;;;12.20;99.90;;;;;;5075322;28;20515;-89
2022/10/09 10:47:00;;;;;;;2.25;1.73;;;12.30;99.90;;;;;;5057296;28;20207;-88
2022/10/09 10:49:26;;;;;;;5.53;2.38;;;12.30;99.90;;;;;;5057488;28;20263;-88
2022/10/09 10:52:26;;;;;;;2.03;1.75;;;12.40;99.90;;;;;;5075425;28;20183;-88
2022/10/09 10:55:14;;;;;;;3.55;2.08;;;12.40;99.90;;;;;;5038228;28;20180;-88
2022/10/09 10:58:06;;;;;;;3.22;2.28;;;12.40;99.90;;;;;;5038208;28;20184;-89
2022/10/09 11:00:37;;;;;;;2.20;1.92;;;12.50;99.90;;;;;;5003224;28;20576;-86
2022/10/09 11:03:29;;;;;;;2.40;1.80;;;12.50;99.90;;;;;;5055932;28;20616;-88
2022/10/09 11:06:13;;;;;;;2.50;2.08;;;12.40;99.90;;;;;;5008604;28;20188;-89
2022/10/09 11:08:43;;;;;;;2.13;1.92;;;12.40;99.90;;;;;;5042278;28;20206;-89
2022/10/09 11:11:42;;;;;;;1.95;1.75;;;12.30;99.90;;;;;;5057916;28;20175;-88
2022/10/09 11:14:18;;;;;;;4.35;3.47;;;12.40;99.90;;;;;;5058040;28;20620;-88
2022/10/09 11:16:50;;;;;;;9.68;2.65;;;12.60;99.90;;;;;;5075258;28;20171;-89
2022/10/09 11:19:34;;;;;;;7.35;2.60;;;12.70;99.90;;;;;;5057650;28;20183;-90
2022/10/09 11:22:05;;;;;;;2.92;2.00;;;12.70;99.90;;;;;;5057548;28;20264;-89
2022/10/09 11:24:38;;;;;;;3.00;2.40;;;12.70;99.90;;;;;;5057225;28;20536;-88
2022/10/09 11:27:37;;;;;;;4.50;2.38;;;12.70;99.90;;;;;;5073950;28;20203;-88
2022/10/09 11:30:08;;;;;;;2.88;1.88;;;12.70;99.90;;;;;;5056105;28;20217;-90
2022/10/09 11:32:49;;;;;;;2.50;1.90;;;12.70;99.90;;;;;;5055993;28;20692;-86
2022/10/09 11:35:19;;;;;;;3.25;2.00;;;12.70;99.90;;;;;;5052661;28;20191;-87
2022/10/09 11:38:00;;;;;;;5.63;2.38;;;12.70;99.90;;;;;;5055330;28;20195;-86
2022/10/09 11:40:39;;;;;;;2.47;1.92;;;12.70;99.90;;;;;;5058210;28;20269;-88
2022/10/09 11:43:23;;;;;;;3.10;2.50;;;12.70;99.90;;;;;;5056509;28;20179;-87
2022/10/09 11:46:06;;;;;;;3.55;2.35;;;12.70;99.90;;;;;;5075038;28;20276;-87
2022/10/09 11:48:53;;;;;;;2.03;1.80;;;12.80;99.90;;;;;;5074381;28;20195;-88
2022/10/09 11:51:40;;;;;;;3.50;2.55;;;12.80;99.90;;;;;;5056450;28;20209;-87
2022/10/09 11:54:15;;;;;;;2.45;1.52;;;12.90;99.90;;;;;;5056871;28;20530;-88
2022/10/09 11:56:51;;;;;;;3.45;2.60;;;13.60;99.90;;;;;;5074061;28;20179;-86
2022/10/09 11:59:24;;;;;;;5.97;2.40;;;13.00;99.90;;;;;;5056432;28;20232;-87
2022/10/09 12:01:50;;;;;;;3.40;2.47;;;13.10;99.90;;;;;;5056209;28;20734;-87
2022/10/09 12:04:30;;;;;;;6.32;2.08;;;13.00;99.90;;;;;;5039640;28;20179;-89
2022/10/09 12:07:02;;;;;;;2.95;2.42;;;12.90;99.90;;;;;;5055709;28;20297;-93
2022/10/09 12:09:46;;;;;;;3.60;1.92;;;12.80;99.90;;;;;;5076779;28;20170;-89
2022/10/09 12:12:15;;;;;;;2.92;2.25;;;12.80;99.90;;;;;;5061782;28;20175;-87
2022/10/09 12:14:43;;;;;;;2.13;1.83;;;12.70;99.90;;;;;;5072020;28;20257;-88
2022/10/09 12:17:21;;;;;;;3.15;2.80;;;12.60;99.90;;;;;;5068357;28;20175;-88
2022/10/09 12:19:51;;;;;;;1.83;1.52;;;12.70;99.90;;;;;;5056391;28;20522;-87
2022/10/09 12:22:26;;;;;;;1.83;1.70;;;12.70;99.90;;;;;;5056761;28;20518;-88
2022/10/09 12:24:57;;;;;;;2.75;1.67;;;12.70;99.90;;;;;;5057981;28;20178;-89
2022/10/09 12:27:29;;;;;;;6.75;2.50;;;12.80;99.90;;;;;;5078415;28;20248;-89
2022/10/09 12:29:58;;;;;;;2.90;2.08;;;13.10;99.90;;;;;;5074281;28;20187;-88
2022/10/09 12:33:26;;;;;;;;;;;;;;;;;;;;;
2022/10/09 12:36:12;;;;;;;1.98;1.67;;;13.10;99.90;;;;;;5062663;28;20575;-90
2022/10/09 12:38:38;;;;;;;11.30;2.60;;;13.40;99.90;;;;;;5055916;28;20636;-89
2022/10/09 12:41:11;;;;;;;3.75;2.45;;;13.60;99.90;;;;;;5074614;28;20639;-92
2022/10/09 12:43:43;;;;;;;3.92;2.38;;;13.60;99.90;;;;;;5056773;28;20273;-89
2022/10/09 12:46:12;;;;;;;4.38;2.80;;;13.30;99.90;;;;;;5073585;28;20679;-89
2022/10/09 12:48:44;;;;;;;5.13;2.25;;;13.20;99.90;;;;;;5075148;28;20187;-89
2022/10/09 12:51:23;;;;;;;3.58;2.30;;;13.50;99.90;;;;;;5056744;28;20193;-90
2022/10/09 12:53:51;;;;;;;5.75;3.38;;;13.40;99.90;;;;;;5056183;28;20183;-88
2022/10/09 12:56:37;;;;;;;3.72;2.20;;;12.90;99.90;;;;;;5056042;28;20279;-86
2022/10/09 12:59:08;;;;;;;4.85;2.10;;;12.80;99.90;;;;;;5074798;28;20173;-88
2022/10/09 13:01:34;;;;;;;5.32;2.10;;;12.70;99.90;;;;;;5072864;28;20202;-88
2022/10/09 13:04:08;;;;;;;3.67;2.53;;;12.60;99.90;;;;;;5055634;28;20228;-87
2022/10/09 13:06:42;;;;;;;3.55;2.20;;;12.50;99.90;;;;;;5053922;28;20210;-87